createdAt,value
2018-10-17T00:01:59.399Z,95666.00
2018-10-17T00:04:30.585Z,95669.00
2018-10-17T00:07:01.817Z,95666.00
2018-10-17T00:09:32.614Z,95670.00
2018-10-17T00:12:03.554Z,95668.00
2018-10-17T00:14:34.486Z,95670.00
2018-10-17T00:17:05.895Z,95670.00
2018-10-17T00:19:37.043Z,95665.00
2018-10-17T00:22:08.455Z,95667.00
2018-10-17T00:24:39.335Z,95667.00
2018-10-17T00:27:10.250Z,95674.00
2018-10-17T00:29:41.244Z,95672.00
2018-10-17T00:32:12.198Z,95677.00
2018-10-17T00:34:43.058Z,95677.00
2018-10-17T00:37:14.027Z,95672.00
2018-10-17T00:39:44.856Z,95679.00
2018-10-17T00:42:15.760Z,95676.00
2018-10-17T00:44:46.655Z,95676.00
2018-10-17T00:47:17.600Z,95684.00
2018-10-17T00:49:48.497Z,95684.00
2018-10-17T00:52:19.458Z,95676.00
2018-10-17T00:54:50.299Z,95678.00
2018-10-17T00:57:21.196Z,95679.00
2018-10-17T00:59:52.157Z,95682.00
2018-10-17T01:02:23.080Z,95676.00
2018-10-17T01:04:53.916Z,95674.00
2018-10-17T01:07:24.843Z,95673.00
2018-10-17T01:09:55.988Z,95676.00
2018-10-17T01:12:26.874Z,95673.00
2018-10-17T01:14:57.736Z,95672.00
2018-10-17T01:17:28.639Z,95670.00
2018-10-17T01:19:59.485Z,95675.00
2018-10-17T01:22:30.348Z,95670.00
2018-10-17T01:25:01.255Z,95669.00
2018-10-17T01:27:32.136Z,95665.00
2018-10-17T01:30:02.949Z,95664.00
2018-10-17T01:32:33.908Z,95662.00
2018-10-17T01:35:05.417Z,95662.00
2018-10-17T01:37:36.370Z,95662.00
2018-10-17T01:40:08.388Z,95657.00
2018-10-17T01:42:39.296Z,95656.00
2018-10-17T01:45:10.715Z,95656.00
2018-10-17T01:47:41.611Z,95658.00
2018-10-17T01:50:15.575Z,95656.00
2018-10-17T01:52:46.555Z,95656.00
2018-10-17T01:55:17.543Z,95659.00
2018-10-17T01:57:48.557Z,95654.00
2018-10-17T02:00:19.583Z,95659.00
2018-10-17T02:02:50.571Z,95660.00
2018-10-17T02:05:21.435Z,95654.00
2018-10-17T02:07:52.376Z,95658.00
2018-10-17T02:10:23.251Z,95647.00
2018-10-17T02:12:54.328Z,95650.00
2018-10-17T02:15:25.321Z,95653.00
2018-10-17T02:17:56.234Z,95650.00
2018-10-17T02:20:27.594Z,95653.00
2018-10-17T02:22:58.508Z,95649.00
2018-10-17T02:25:29.536Z,95657.00
2018-10-17T02:28:00.562Z,95646.00
2018-10-17T02:30:31.426Z,95647.00
2018-10-17T02:33:02.336Z,95650.00
2018-10-17T02:35:33.188Z,95651.00
2018-10-17T02:38:04.078Z,95656.00
2018-10-17T02:40:34.968Z,95648.00
2018-10-17T02:43:06.031Z,95656.00
2018-10-17T02:45:36.891Z,95647.00
2018-10-17T02:48:07.819Z,95650.00
2018-10-17T02:50:38.702Z,95653.00
2018-10-17T02:53:09.853Z,95650.00
2018-10-17T02:55:40.632Z,95650.00
2018-10-17T02:58:11.496Z,95641.00
2018-10-17T03:00:42.403Z,95647.00
2018-10-17T03:03:13.478Z,95643.00
2018-10-17T03:05:44.363Z,95644.00
2018-10-17T03:08:15.267Z,95648.00
2018-10-17T03:10:46.116Z,95646.00
2018-10-17T03:13:17.088Z,95653.00
2018-10-17T03:15:47.908Z,95649.00
2018-10-17T03:18:18.864Z,95654.00
2018-10-17T03:20:49.716Z,95661.00
2018-10-17T03:23:20.843Z,95657.00
2018-10-17T03:25:51.820Z,95652.00
2018-10-17T03:28:23.098Z,95661.00
2018-10-17T03:30:54.041Z,95664.00
2018-10-17T03:33:25.055Z,95659.00
2018-10-17T03:35:56.058Z,95661.00
2018-10-17T03:38:27.052Z,95661.00
2018-10-17T03:40:58.054Z,95659.00
2018-10-17T03:43:29.036Z,95661.00
2018-10-17T03:45:59.999Z,95660.00
2018-10-17T03:48:31.011Z,95658.00
2018-10-17T03:51:01.939Z,95662.00
2018-10-17T03:53:32.962Z,95663.00
2018-10-17T03:56:04.220Z,95663.00
2018-10-17T03:58:35.240Z,95661.00
2018-10-17T04:01:06.538Z,95664.00
2018-10-17T04:03:37.487Z,95658.00
2018-10-17T04:06:08.350Z,95656.00
2018-10-17T04:08:39.279Z,95663.00
2018-10-17T04:11:10.227Z,95664.00
2018-10-17T04:13:41.194Z,95663.00
2018-10-17T04:16:12.127Z,95664.00
2018-10-17T04:18:43.076Z,95664.00
2018-10-17T04:21:13.965Z,95664.00
2018-10-17T04:23:45.018Z,95671.00
2018-10-17T04:26:15.931Z,95672.00
2018-10-17T04:28:53.832Z,95675.00
2018-10-17T04:31:24.732Z,95672.00
2018-10-17T04:33:55.791Z,95675.00
2018-10-17T04:36:26.689Z,95676.00
2018-10-17T04:38:57.609Z,95670.00
2018-10-17T04:41:28.584Z,95670.00
2018-10-17T04:43:59.575Z,95673.00
2018-10-17T04:46:30.492Z,95675.00
2018-10-17T04:49:01.469Z,95669.00
2018-10-17T04:51:32.544Z,95672.00
2018-10-17T04:54:03.555Z,95674.00
2018-10-17T04:56:34.498Z,95670.00
2018-10-17T04:59:05.534Z,95676.00
2018-10-17T05:01:36.549Z,95679.00
2018-10-17T05:04:07.836Z,95678.00
2018-10-17T05:06:38.761Z,95675.00
2018-10-17T05:09:11.578Z,95675.00
2018-10-17T05:11:42.535Z,95674.00
2018-10-17T05:14:13.494Z,95667.00
2018-10-17T05:16:44.467Z,95673.00
2018-10-17T05:19:15.503Z,95668.00
2018-10-17T05:21:46.491Z,95673.00
2018-10-17T05:24:17.521Z,95676.00
2018-10-17T05:26:48.554Z,95680.00
2018-10-17T05:29:19.616Z,95684.00
2018-10-17T05:31:50.485Z,95684.00
2018-10-17T05:34:21.886Z,95679.00
2018-10-17T05:36:52.812Z,95682.00
2018-10-17T05:39:23.682Z,95688.00
2018-10-17T05:41:54.589Z,95687.00
2018-10-17T05:44:25.599Z,95689.00
2018-10-17T05:46:56.611Z,95690.00
2018-10-17T05:49:27.487Z,95695.00
2018-10-17T05:51:58.519Z,95697.00
2018-10-17T05:54:29.419Z,95701.00
2018-10-17T05:57:00.280Z,95697.00
2018-10-17T05:59:31.724Z,95698.00
2018-10-17T06:02:06.746Z,95700.00
2018-10-17T06:04:37.821Z,95694.00
2018-10-17T06:07:08.862Z,95693.00
2018-10-17T06:09:40.445Z,95697.00
2018-10-17T06:12:11.567Z,95693.00
2018-10-17T06:14:42.609Z,95698.00
2018-10-17T06:17:13.667Z,95698.00
2018-10-17T06:19:44.601Z,95695.00
2018-10-17T06:22:15.468Z,95693.00
2018-10-17T06:24:46.507Z,95693.00
2018-10-17T06:27:17.512Z,95694.00
2018-10-17T06:29:48.491Z,95696.00
2018-10-17T06:32:19.406Z,95703.00
2018-10-17T06:34:50.489Z,95705.00
2018-10-17T06:37:21.436Z,95705.00
2018-10-17T06:39:52.371Z,95705.00
2018-10-17T06:42:23.288Z,95707.00
2018-10-17T06:44:54.299Z,95708.00
2018-10-17T06:47:25.197Z,95711.00
2018-10-17T06:49:56.142Z,95715.00
2018-10-17T06:52:27.063Z,95713.00
2018-10-17T06:54:58.209Z,95712.00
2018-10-17T06:57:29.213Z,95713.00
2018-10-17T07:00:00.799Z,95714.00
2018-10-17T07:02:31.780Z,95713.00
2018-10-17T07:05:02.874Z,95709.00
2018-10-17T07:07:33.761Z,95709.00
2018-10-17T07:10:04.767Z,95706.00
2018-10-17T07:12:35.679Z,95701.00
2018-10-17T07:15:07.788Z,95704.00
2018-10-17T07:17:39.375Z,95702.00
2018-10-17T07:20:10.719Z,95699.00
2018-10-17T07:22:41.594Z,95696.00
2018-10-17T07:25:12.685Z,95696.00
2018-10-17T07:27:43.659Z,95695.00
2018-10-17T07:30:14.622Z,95692.00
2018-10-17T07:32:45.501Z,95689.00
2018-10-17T07:35:16.509Z,95690.00
2018-10-17T07:37:47.420Z,95684.00
2018-10-17T07:40:18.391Z,95685.00
2018-10-17T07:42:49.270Z,95682.00
2018-10-17T07:45:20.244Z,95683.00
2018-10-17T07:47:52.190Z,95677.00
2018-10-17T07:50:23.302Z,95675.00
2018-10-17T07:52:54.312Z,95683.00
2018-10-17T07:55:25.268Z,95674.00
2018-10-17T07:57:56.295Z,95677.00
2018-10-17T08:00:27.468Z,95669.00
2018-10-17T08:02:58.411Z,95667.00
2018-10-17T08:05:29.353Z,95659.00
2018-10-17T08:08:00.300Z,95661.00
2018-10-17T08:10:31.884Z,95660.00
2018-10-17T08:13:02.845Z,95655.00
2018-10-17T08:15:33.808Z,95655.00
2018-10-17T08:18:04.872Z,95654.00
2018-10-17T08:20:35.819Z,95651.00
2018-10-17T08:23:07.504Z,95649.00
2018-10-17T08:25:38.441Z,95645.00
2018-10-17T08:28:09.368Z,95642.00
2018-10-17T08:30:40.278Z,95641.00
2018-10-17T08:33:11.185Z,95634.00
2018-10-17T08:35:42.304Z,95631.00
2018-10-17T08:38:13.235Z,95635.00
2018-10-17T08:40:45.080Z,95628.00
2018-10-17T08:43:15.949Z,95626.00
2018-10-17T08:45:46.962Z,95622.00
2018-10-17T08:48:17.869Z,95624.00
2018-10-17T08:50:48.984Z,95623.00
2018-10-17T08:53:19.904Z,95623.00
2018-10-17T08:55:50.826Z,95626.00
2018-10-17T08:58:21.776Z,95621.00
2018-10-17T09:00:52.701Z,95619.00
2018-10-17T09:03:23.594Z,95621.00
2018-10-17T09:05:58.974Z,95613.00
2018-10-17T09:08:30.064Z,95616.00
2018-10-17T09:11:01.036Z,95614.00
2018-10-17T09:13:32.035Z,95615.00
2018-10-17T09:16:06.029Z,95612.00
2018-10-17T09:18:36.865Z,95607.00
2018-10-17T09:21:08.189Z,95600.00
2018-10-17T09:23:38.874Z,95600.00
2018-10-17T09:26:09.888Z,95592.00
2018-10-17T09:28:41.014Z,95590.00
2018-10-17T09:31:12.067Z,95591.00
2018-10-17T09:33:43.007Z,95591.00
2018-10-17T09:36:14.003Z,95584.00
2018-10-17T09:38:44.907Z,95586.00
2018-10-17T09:41:15.864Z,95578.00
2018-10-17T09:43:47.229Z,95576.00
2018-10-17T09:46:18.260Z,95569.00
2018-10-17T09:48:49.243Z,95568.00
2018-10-17T09:51:20.268Z,95559.00
2018-10-17T09:53:51.105Z,95561.00
2018-10-17T09:56:22.019Z,95550.00
2018-10-17T09:58:53.540Z,95551.00
2018-10-17T10:01:29.699Z,95548.00
2018-10-17T10:04:01.038Z,95544.00
2018-10-17T10:06:32.010Z,95544.00
2018-10-17T10:09:03.056Z,95543.00
2018-10-17T10:11:34.080Z,95537.00
2018-10-17T10:14:05.167Z,95534.00
2018-10-17T10:16:36.522Z,95525.00
2018-10-17T10:19:08.555Z,95522.00
2018-10-17T10:21:39.695Z,95523.00
2018-10-17T10:24:10.685Z,95517.00
2018-10-17T10:26:41.600Z,95516.00
2018-10-17T10:29:12.546Z,95508.00
2018-10-17T10:31:43.556Z,95512.00
2018-10-17T10:34:14.789Z,95505.00
2018-10-17T10:36:45.823Z,95503.00
2018-10-17T10:39:16.770Z,95500.00
2018-10-17T10:41:47.713Z,95492.00
2018-10-17T10:44:18.649Z,95491.00
2018-10-17T10:46:50.068Z,95483.00
2018-10-17T10:49:20.980Z,95476.00
2018-10-17T10:51:52.039Z,95475.00
2018-10-17T10:54:22.929Z,95473.00
2018-10-17T10:56:53.938Z,95464.00
2018-10-17T10:59:24.975Z,95462.00
2018-10-17T11:01:55.857Z,95455.00
2018-10-17T11:04:26.795Z,95450.00
2018-10-17T11:06:57.862Z,95449.00
2018-10-17T11:09:28.837Z,95444.00
2018-10-17T11:11:59.792Z,95441.00
2018-10-17T11:14:30.991Z,95440.00
2018-10-17T11:17:02.031Z,95433.00
2018-10-17T11:19:33.163Z,95426.00
2018-10-17T11:22:04.497Z,95427.00
2018-10-17T11:24:35.351Z,95425.00
2018-10-17T11:27:06.730Z,95423.00
2018-10-17T11:29:37.612Z,95426.00
2018-10-17T11:32:08.791Z,95423.00
2018-10-17T11:34:39.794Z,95417.00
2018-10-17T11:37:10.825Z,95416.00
2018-10-17T11:39:41.740Z,95412.00
2018-10-17T11:42:12.801Z,95406.00
2018-10-17T11:44:43.815Z,95403.00
2018-10-17T11:47:15.128Z,95400.00
2018-10-17T11:49:46.042Z,95398.00
2018-10-17T11:52:17.142Z,95399.00
2018-10-17T11:54:48.253Z,95387.00
2018-10-17T11:57:19.381Z,95383.00
2018-10-17T11:59:50.461Z,95386.00
2018-10-17T12:02:21.381Z,95381.00
2018-10-17T12:04:52.493Z,95382.00
2018-10-17T12:07:23.362Z,95376.00
2018-10-17T12:09:54.302Z,95379.00
2018-10-17T12:12:25.364Z,95374.00
2018-10-17T12:14:56.376Z,95374.00
2018-10-17T12:17:27.305Z,95377.00
2018-10-17T12:19:58.585Z,95377.00
2018-10-17T12:22:29.666Z,95370.00
2018-10-17T12:25:00.601Z,95368.00
2018-10-17T12:27:31.620Z,95362.00
2018-10-17T12:30:02.591Z,95365.00
2018-10-17T12:32:33.579Z,95360.00
2018-10-17T12:35:04.696Z,95357.00
2018-10-17T12:37:36.579Z,95352.00
2018-10-17T12:40:09.541Z,95353.00
2018-10-17T12:42:40.482Z,95346.00
2018-10-17T12:45:11.654Z,95343.00
2018-10-17T12:47:42.553Z,95343.00
2018-10-17T12:50:13.598Z,95341.00
2018-10-17T12:52:44.635Z,95340.00
2018-10-17T12:55:15.610Z,95340.00
2018-10-17T12:57:46.624Z,95339.00
2018-10-17T13:00:17.520Z,95340.00
2018-10-17T13:02:48.571Z,95340.00
2018-10-17T13:05:19.469Z,95337.00
2018-10-17T13:07:50.468Z,95336.00
2018-10-17T13:10:21.359Z,95334.00
2018-10-17T13:12:52.465Z,95336.00
2018-10-17T13:15:23.965Z,95335.00
2018-10-17T13:17:54.988Z,95330.00
2018-10-17T13:20:25.937Z,95331.00
2018-10-17T13:22:56.976Z,95328.00
2018-10-17T13:25:27.943Z,95333.00
2018-10-17T13:27:58.946Z,95329.00
2018-10-17T13:30:30.046Z,95327.00
2018-10-17T13:33:01.176Z,95329.00
2018-10-17T13:35:32.313Z,95318.00
2018-10-17T13:38:03.388Z,95315.00
2018-10-17T13:40:34.736Z,95311.00
2018-10-17T13:43:05.926Z,95315.00
2018-10-17T13:45:36.912Z,95309.00
2018-10-17T13:48:08.084Z,95311.00
2018-10-17T13:50:39.027Z,95308.00
2018-10-17T13:53:10.480Z,95307.00
2018-10-17T13:55:41.522Z,95301.00
2018-10-17T13:58:12.774Z,95298.00
2018-10-17T14:00:43.764Z,95299.00
2018-10-17T14:03:14.788Z,95297.00
2018-10-17T14:05:45.851Z,95300.00
2018-10-17T14:08:16.930Z,95297.00
2018-10-17T14:10:47.869Z,95301.00
2018-10-17T14:13:18.968Z,95302.00
2018-10-17T14:15:50.054Z,95296.00
2018-10-17T14:18:21.127Z,95290.00
2018-10-17T14:20:52.179Z,95295.00
2018-10-17T14:23:23.294Z,95296.00
2018-10-17T14:25:54.344Z,95296.00
2018-10-17T14:28:25.645Z,95299.00
2018-10-17T14:30:57.000Z,95298.00
2018-10-17T14:33:28.070Z,95292.00
2018-10-17T14:35:59.159Z,95301.00
2018-10-17T14:38:30.158Z,95295.00
2018-10-17T14:41:02.088Z,95295.00
2018-10-17T14:43:33.165Z,95300.00
2018-10-17T14:46:04.097Z,95301.00
2018-10-17T14:48:35.160Z,95303.00
2018-10-17T14:51:06.306Z,95301.00
2018-10-17T14:53:37.359Z,95303.00
2018-10-17T14:56:08.463Z,95297.00
2018-10-17T14:58:39.530Z,95297.00
2018-10-17T15:01:10.528Z,95289.00
2018-10-17T15:03:41.633Z,95299.00
2018-10-17T15:06:12.668Z,95293.00
2018-10-17T15:08:43.661Z,95290.00
2018-10-17T15:11:14.826Z,95295.00
2018-10-17T15:13:45.777Z,95291.00
2018-10-17T15:16:16.825Z,95285.00
2018-10-17T15:18:47.833Z,95292.00
2018-10-17T15:21:18.860Z,95296.00
2018-10-17T15:23:49.832Z,95291.00
2018-10-17T15:26:21.828Z,95296.00
2018-10-17T15:28:52.844Z,95298.00
2018-10-17T15:31:23.850Z,95290.00
2018-10-17T15:33:54.770Z,95293.00
2018-10-17T15:36:26.112Z,95296.00
2018-10-17T15:38:57.113Z,95298.00
2018-10-17T15:41:28.285Z,95295.00
2018-10-17T15:43:59.319Z,95295.00
2018-10-17T15:46:30.627Z,95293.00
2018-10-17T15:49:01.621Z,95296.00
2018-10-17T15:51:33.019Z,95288.00
2018-10-17T15:54:04.213Z,95299.00
2018-10-17T15:56:35.089Z,95301.00
2018-10-17T15:59:06.153Z,95297.00
2018-10-17T16:01:37.455Z,95299.00
2018-10-17T16:04:08.544Z,95300.00
2018-10-17T16:06:39.535Z,95307.00
2018-10-17T16:09:12.952Z,95308.00
2018-10-17T16:11:43.975Z,95305.00
2018-10-17T16:14:15.431Z,95309.00
2018-10-17T16:16:46.411Z,95310.00
2018-10-17T16:19:17.546Z,95314.00
2018-10-17T16:21:48.502Z,95321.00
2018-10-17T16:24:19.614Z,95322.00
2018-10-17T16:26:50.617Z,95322.00
2018-10-17T16:29:21.764Z,95327.00
2018-10-17T16:31:53.828Z,95323.00
2018-10-17T16:34:25.239Z,95329.00
2018-10-17T16:36:56.603Z,95335.00
2018-10-17T16:39:27.711Z,95342.00
2018-10-17T16:41:59.371Z,95349.00
2018-10-17T16:44:31.532Z,95347.00
2018-10-17T16:47:02.776Z,95354.00
2018-10-17T16:49:35.024Z,95350.00
2018-10-17T16:52:06.606Z,95351.00
2018-10-17T16:54:37.680Z,95356.00
2018-10-17T16:57:10.263Z,95355.00
2018-10-17T16:59:41.345Z,95355.00
2018-10-17T17:02:12.369Z,95362.00
2018-10-17T17:04:43.452Z,95365.00
2018-10-17T17:07:14.436Z,95368.00
2018-10-17T17:09:45.517Z,95374.00
2018-10-17T17:12:17.868Z,95372.00
2018-10-17T17:14:49.901Z,95373.00
2018-10-17T17:17:20.882Z,95381.00
2018-10-17T17:19:52.339Z,95384.00
2018-10-17T17:22:23.507Z,95386.00
2018-10-17T17:24:54.543Z,95389.00
2018-10-17T17:27:25.688Z,95390.00
2018-10-17T17:29:56.752Z,95395.00
2018-10-17T17:32:28.488Z,95392.00
2018-10-17T17:34:59.461Z,95396.00
2018-10-17T17:37:31.272Z,95396.00
2018-10-17T17:40:02.368Z,95403.00
2018-10-17T17:42:34.346Z,95398.00
2018-10-17T17:45:05.684Z,95404.00
2018-10-17T17:47:37.189Z,95405.00
2018-10-17T17:50:09.276Z,95404.00
2018-10-17T17:52:40.498Z,95404.00
2018-10-17T17:55:11.648Z,95404.00
2018-10-17T17:57:43.852Z,95407.00
2018-10-17T18:00:22.336Z,95409.00
2018-10-17T18:02:53.297Z,95411.00
2018-10-17T18:05:25.523Z,95405.00
2018-10-17T18:07:56.753Z,95408.00
2018-10-17T18:10:27.838Z,95412.00
2018-10-17T18:13:00.112Z,95422.00
2018-10-17T18:15:31.091Z,95418.00
2018-10-17T18:18:03.142Z,95415.00
2018-10-17T18:20:34.536Z,95417.00
2018-10-17T18:23:06.441Z,95420.00
2018-10-17T18:25:37.717Z,95429.00
2018-10-17T18:28:09.439Z,95428.00
2018-10-17T18:30:41.405Z,95425.00
2018-10-17T18:33:13.184Z,95429.00
2018-10-17T18:35:44.394Z,95436.00
2018-10-17T18:38:16.253Z,95432.00
2018-10-17T18:40:47.326Z,95434.00
2018-10-17T18:43:18.340Z,95434.00
2018-10-17T18:45:49.682Z,95436.00
2018-10-17T18:48:21.211Z,95432.00
2018-10-17T18:50:52.962Z,95440.00
2018-10-17T18:53:24.211Z,95446.00
2018-10-17T18:55:55.864Z,95450.00
2018-10-17T18:58:27.169Z,95451.00
2018-10-17T19:00:58.704Z,95456.00
2018-10-17T19:03:29.953Z,95450.00
2018-10-17T19:06:01.161Z,95457.00
2018-10-17T19:08:32.766Z,95460.00
2018-10-17T19:11:04.531Z,95466.00
2018-10-17T19:13:35.654Z,95469.00
2018-10-17T19:16:07.110Z,95470.00
2018-10-17T19:18:38.056Z,95477.00
2018-10-17T19:21:15.979Z,95479.00
2018-10-17T19:23:47.153Z,95482.00
2018-10-17T19:26:18.793Z,95486.00
2018-10-17T19:28:49.741Z,95483.00
2018-10-17T19:31:20.959Z,95491.00
2018-10-17T19:33:52.544Z,95491.00
2018-10-17T19:36:24.084Z,95491.00
2018-10-17T19:38:55.161Z,95492.00
2018-10-17T19:41:26.271Z,95490.00
2018-10-17T19:43:57.220Z,95497.00
2018-10-17T19:46:29.160Z,95498.00
2018-10-17T19:49:00.171Z,95496.00
2018-10-17T19:51:31.539Z,95502.00
2018-10-17T19:54:03.047Z,95503.00
2018-10-17T19:56:35.341Z,95504.00
2018-10-17T19:59:06.848Z,95508.00
2018-10-17T20:01:38.342Z,95502.00
2018-10-17T20:04:09.433Z,95505.00
2018-10-17T20:06:40.418Z,95499.00
2018-10-17T20:09:12.138Z,95507.00
2018-10-17T20:11:43.479Z,95504.00
2018-10-17T20:14:14.523Z,95505.00
2018-10-17T20:16:45.565Z,95501.00
2018-10-17T20:19:16.597Z,95503.00
2018-10-17T20:21:47.732Z,95509.00
2018-10-17T20:24:18.636Z,95504.00
2018-10-17T20:26:49.711Z,95505.00
2018-10-17T20:29:21.313Z,95507.00
2018-10-17T20:31:52.355Z,95506.00
2018-10-17T20:34:23.918Z,95509.00
2018-10-17T20:36:55.072Z,95510.00
2018-10-17T20:39:26.061Z,95509.00
2018-10-17T20:41:56.986Z,95509.00
2018-10-17T20:44:28.099Z,95511.00
2018-10-17T20:46:59.351Z,95516.00
2018-10-17T20:49:30.271Z,95520.00
2018-10-17T20:52:01.217Z,95515.00
2018-10-17T20:54:32.148Z,95513.00
2018-10-17T20:57:03.247Z,95515.00
2018-10-17T20:59:34.127Z,95513.00
2018-10-17T21:02:05.216Z,95516.00
2018-10-17T21:04:36.270Z,95518.00
2018-10-17T21:07:07.291Z,95515.00
2018-10-17T21:09:39.002Z,95520.00
2018-10-17T21:12:09.940Z,95516.00
2018-10-17T21:14:40.846Z,95519.00
2018-10-17T21:17:11.809Z,95513.00
2018-10-17T21:19:42.687Z,95513.00
2018-10-17T21:22:13.625Z,95518.00
2018-10-17T21:24:44.512Z,95523.00
2018-10-17T21:27:15.484Z,95528.00
2018-10-17T21:29:46.631Z,95531.00
2018-10-17T21:32:17.629Z,95533.00
2018-10-17T21:34:48.540Z,95537.00
2018-10-17T21:37:19.572Z,95541.00
2018-10-17T21:39:50.419Z,95537.00
2018-10-17T21:42:21.367Z,95531.00
2018-10-17T21:44:52.291Z,95530.00
2018-10-17T21:47:23.380Z,95527.00
2018-10-17T21:49:54.262Z,95528.00
2018-10-17T21:52:25.190Z,95533.00
2018-10-17T21:54:56.084Z,95526.00
2018-10-17T21:57:27.312Z,95527.00
2018-10-17T21:59:58.284Z,95524.00
2018-10-17T22:02:29.194Z,95522.00
2018-10-17T22:05:00.056Z,95525.00
2018-10-17T22:07:31.032Z,95526.00
2018-10-17T22:10:01.903Z,95524.00
2018-10-17T22:12:32.952Z,95529.00
2018-10-17T22:15:03.999Z,95526.00
2018-10-17T22:17:35.139Z,95526.00
2018-10-17T22:20:06.568Z,95521.00
2018-10-17T22:22:37.510Z,95521.00
2018-10-17T22:25:08.935Z,95521.00
2018-10-17T22:27:40.155Z,95523.00
2018-10-17T22:30:11.096Z,95530.00
2018-10-17T22:32:42.031Z,95530.00
2018-10-17T22:35:12.972Z,95526.00
2018-10-17T22:37:43.944Z,95524.00
2018-10-17T22:40:14.858Z,95525.00
2018-10-17T22:42:45.851Z,95523.00
2018-10-17T22:45:16.842Z,95519.00
2018-10-17T22:47:47.801Z,95523.00
2018-10-17T22:50:18.691Z,95525.00
2018-10-17T22:52:49.620Z,95533.00
2018-10-17T22:55:20.613Z,95532.00
2018-10-17T22:57:51.532Z,95535.00
2018-10-17T23:00:22.443Z,95535.00
2018-10-17T23:02:53.415Z,95532.00
2018-10-17T23:05:24.596Z,95537.00
2018-10-17T23:07:55.613Z,95533.00
2018-10-17T23:10:26.490Z,95539.00
2018-10-17T23:12:57.423Z,95537.00
2018-10-17T23:15:28.359Z,95537.00
2018-10-17T23:17:59.446Z,95536.00
2018-10-17T23:20:30.339Z,95534.00
2018-10-17T23:23:01.335Z,95536.00
2018-10-17T23:25:32.482Z,95533.00
2018-10-17T23:28:03.433Z,95531.00
2018-10-17T23:30:34.366Z,95538.00
2018-10-17T23:33:05.270Z,95536.00
2018-10-17T23:35:36.204Z,95539.00
2018-10-17T23:38:07.297Z,95537.00
2018-10-17T23:40:38.151Z,95540.00
2018-10-17T23:43:10.137Z,95543.00
2018-10-17T23:45:41.054Z,95544.00
2018-10-17T23:48:12.110Z,95539.00
2018-10-17T23:50:42.975Z,95541.00
2018-10-17T23:53:13.916Z,95539.00
2018-10-17T23:55:44.831Z,95547.00
2018-10-17T23:58:15.802Z,95544.00
